Hauptseite
METAR-TAF:

METAR-TAF

Flughäfen :

Islay Airport

Islay, Schottland

Breite: 55-40-55N, Länge: 006-15-24W, Höhe: 16 m

Beobachtung

Neuester Wetterbericht von vor 39 Minuten, um 22:20 UTC
Windstille
Temperatur
Luftdruck

METAR: EGPI 222220Z AUTO 00000KT //// ///////// ///// Q////

Zeit: 23:59 (22:59 UTC)

Prognose

Neuester Wetterbericht von vor 9 Stunden und 3 Minuten, um 13:56 UTC
Gültige Prognose vom 22 um 15 UTC bis 22 um 18 UTC
Wind 5 kt aus West
Sichtweite 10 km oder mehr
Leicht bewölkt in der Höhe von 1500 ft
Aufgelockert bewölkt in der Höhe von 2500 ft
Übergehend zu
vom 22 um 15 UTC bis 22 um 18 UTC
Wind 10 kt aus Nord

TAF: EGPI 221356Z 2215/2218 27005KT 9999 FEW015 SCT025 BECMG 2215/2218 35010KT

Wetterbeobachtungen und Prognosen von mehr als 4000 Flughäfen (METAR und TAF Bericht).

Die verfügbaren Stationen werden durch gelbe und rote Markierungen auf der Karte dargestellt.

Führen Sie die Maus auf sie, um den Namen der Station zu sehen.

Darauf klicken, um die Beobachtung von Wetterbeobachtungen und Prognosen zu sehen.

Um die Karte zu ändern : klicken Sie auf den grünen Tasten mit einem schwarzen Kreuz Zum Vergrößern, auf den grünen Button mit einem Gedankenstrich zu verkleinern, oder auf die grünen Pfeile für benachbarte Karten.


METAR-TAF: